sensor_id;sensor_type;location;lat;lon;timestamp;P1;durP1;ratioP1;P2;durP2;ratioP2
80510;SDS011;69840;53.040;8.600;2023-05-23T00:01:57;9.88;;;5.00;;
80510;SDS011;69840;53.040;8.600;2023-05-23T00:06:10;11.52;;;6.88;;
80510;SDS011;69840;53.040;8.600;2023-05-23T00:10:22;12.95;;;6.55;;
80510;SDS011;69840;53.040;8.600;2023-05-23T00:14:35;8.38;;;4.47;;
80510;SDS011;69840;53.040;8.600;2023-05-23T00:18:47;11.07;;;5.93;;
80510;SDS011;69840;53.040;8.600;2023-05-23T00:23:00;10.65;;;5.30;;
80510;SDS011;69840;53.040;8.600;2023-05-23T00:27:13;7.55;;;5.35;;
80510;SDS011;69840;53.040;8.600;2023-05-23T00:31:25;9.82;;;4.68;;
80510;SDS011;69840;53.040;8.600;2023-05-23T00:35:38;8.15;;;4.43;;
80510;SDS011;69840;53.040;8.600;2023-05-23T00:39:51;10.20;;;4.28;;
80510;SDS011;69840;53.040;8.600;2023-05-23T00:44:03;7.80;;;4.70;;
80510;SDS011;69840;53.040;8.600;2023-05-23T00:48:16;7.40;;;4.57;;
80510;SDS011;69840;53.040;8.600;2023-05-23T00:52:29;6.70;;;4.82;;
80510;SDS011;69840;53.040;8.600;2023-05-23T00:56:41;7.63;;;4.95;;
80510;SDS011;69840;53.040;8.600;2023-05-23T01:00:54;6.10;;;3.42;;
80510;SDS011;69840;53.040;8.600;2023-05-23T01:05:07;8.05;;;4.75;;
80510;SDS011;69840;53.040;8.600;2023-05-23T01:09:20;7.55;;;4.78;;
80510;SDS011;69840;53.040;8.600;2023-05-23T01:18:23;13.50;;;6.45;;
80510;SDS011;69840;53.040;8.600;2023-05-23T01:31:46;13.23;;;7.28;;
80510;SDS011;69840;53.040;8.600;2023-05-23T01:36:04;13.77;;;7.60;;
80510;SDS011;69840;53.040;8.600;2023-05-23T01:40:17;15.05;;;7.80;;
80510;SDS011;69840;53.040;8.600;2023-05-23T01:44:29;17.63;;;9.07;;
80510;SDS011;69840;53.040;8.600;2023-05-23T01:48:44;14.75;;;8.70;;
80510;SDS011;69840;53.040;8.600;2023-05-23T01:52:57;17.48;;;9.00;;
80510;SDS011;69840;53.040;8.600;2023-05-23T01:57:11;18.70;;;8.60;;
80510;SDS011;69840;53.040;8.600;2023-05-23T02:01:24;20.33;;;9.15;;
80510;SDS011;69840;53.040;8.600;2023-05-23T02:05:37;14.70;;;9.00;;
80510;SDS011;69840;53.040;8.600;2023-05-23T02:09:51;16.42;;;8.57;;
80510;SDS011;69840;53.040;8.600;2023-05-23T02:14:04;18.95;;;8.77;;
80510;SDS011;69840;53.040;8.600;2023-05-23T02:18:16;13.40;;;7.40;;
80510;SDS011;69840;53.040;8.600;2023-05-23T02:22:29;15.18;;;8.02;;
80510;SDS011;69840;53.040;8.600;2023-05-23T02:26:41;19.25;;;9.48;;
80510;SDS011;69840;53.040;8.600;2023-05-23T02:30:54;21.50;;;9.57;;
80510;SDS011;69840;53.040;8.600;2023-05-23T02:35:07;25.30;;;9.93;;
80510;SDS011;69840;53.040;8.600;2023-05-23T02:39:20;27.38;;;11.55;;
80510;SDS011;69840;53.040;8.600;2023-05-23T02:43:34;28.77;;;12.77;;
80510;SDS011;69840;53.040;8.600;2023-05-23T02:47:47;30.42;;;12.70;;
80510;SDS011;69840;53.040;8.600;2023-05-23T02:51:59;29.52;;;13.27;;
80510;SDS011;69840;53.040;8.600;2023-05-23T02:56:12;29.13;;;14.05;;
80510;SDS011;69840;53.040;8.600;2023-05-23T03:00:26;36.25;;;15.50;;
80510;SDS011;69840;53.040;8.600;2023-05-23T03:04:41;32.85;;;14.07;;
80510;SDS011;69840;53.040;8.600;2023-05-23T03:08:53;45.38;;;16.60;;
80510;SDS011;69840;53.040;8.600;2023-05-23T03:13:06;47.75;;;17.83;;
80510;SDS011;69840;53.040;8.600;2023-05-23T03:17:19;33.00;;;16.05;;
80510;SDS011;69840;53.040;8.600;2023-05-23T03:21:31;43.78;;;16.63;;
80510;SDS011;69840;53.040;8.600;2023-05-23T03:25:43;32.50;;;13.23;;
80510;SDS011;69840;53.040;8.600;2023-05-23T03:29:56;46.88;;;16.52;;
80510;SDS011;69840;53.040;8.600;2023-05-23T03:34:08;37.55;;;15.98;;
80510;SDS011;69840;53.040;8.600;2023-05-23T03:38:21;36.15;;;14.45;;
80510;SDS011;69840;53.040;8.600;2023-05-23T03:42:33;36.55;;;15.32;;
80510;SDS011;69840;53.040;8.600;2023-05-23T03:46:46;31.90;;;15.95;;
80510;SDS011;69840;53.040;8.600;2023-05-23T03:51:00;34.45;;;16.23;;
80510;SDS011;69840;53.040;8.600;2023-05-23T03:55:13;34.90;;;14.15;;
80510;SDS011;69840;53.040;8.600;2023-05-23T03:59:25;34.17;;;15.85;;
80510;SDS011;69840;53.040;8.600;2023-05-23T04:03:38;38.90;;;14.10;;
80510;SDS011;69840;53.040;8.600;2023-05-23T04:07:51;34.95;;;13.23;;
80510;SDS011;69840;53.040;8.600;2023-05-23T04:12:04;32.67;;;13.88;;
80510;SDS011;69840;53.040;8.600;2023-05-23T04:16:17;28.45;;;13.30;;
80510;SDS011;69840;53.040;8.600;2023-05-23T04:20:31;25.27;;;10.73;;
80510;SDS011;69840;53.040;8.600;2023-05-23T04:24:44;24.95;;;11.27;;
80510;SDS011;69840;53.040;8.600;2023-05-23T04:28:56;22.55;;;10.38;;
80510;SDS011;69840;53.040;8.600;2023-05-23T04:33:09;19.42;;;10.73;;
80510;SDS011;69840;53.040;8.600;2023-05-23T04:37:21;17.75;;;10.55;;
80510;SDS011;69840;53.040;8.600;2023-05-23T04:41:34;16.75;;;9.63;;
80510;SDS011;69840;53.040;8.600;2023-05-23T04:45:59;18.55;;;9.32;;
80510;SDS011;69840;53.040;8.600;2023-05-23T04:50:18;14.15;;;7.80;;
80510;SDS011;69840;53.040;8.600;2023-05-23T04:54:31;13.07;;;8.02;;
80510;SDS011;69840;53.040;8.600;2023-05-23T04:58:47;18.83;;;10.77;;
80510;SDS011;69840;53.040;8.600;2023-05-23T05:03:00;18.52;;;9.00;;
80510;SDS011;69840;53.040;8.600;2023-05-23T05:07:14;13.85;;;9.45;;
80510;SDS011;69840;53.040;8.600;2023-05-23T05:11:27;17.85;;;9.80;;
80510;SDS011;69840;53.040;8.600;2023-05-23T05:15:40;12.68;;;8.02;;
80510;SDS011;69840;53.040;8.600;2023-05-23T05:19:52;15.25;;;8.20;;
80510;SDS011;69840;53.040;8.600;2023-05-23T05:24:05;13.80;;;6.75;;
80510;SDS011;69840;53.040;8.600;2023-05-23T05:28:17;13.52;;;7.82;;
80510;SDS011;69840;53.040;8.600;2023-05-23T05:32:34;13.43;;;7.38;;
80510;SDS011;69840;53.040;8.600;2023-05-23T05:36:47;14.73;;;6.85;;
80510;SDS011;69840;53.040;8.600;2023-05-23T05:41:01;18.42;;;7.95;;
80510;SDS011;69840;53.040;8.600;2023-05-23T05:45:19;19.48;;;7.80;;
80510;SDS011;69840;53.040;8.600;2023-05-23T05:49:33;23.20;;;9.05;;
80510;SDS011;69840;53.040;8.600;2023-05-23T05:53:46;20.10;;;7.47;;
80510;SDS011;69840;53.040;8.600;2023-05-23T05:57:58;17.17;;;7.05;;
80510;SDS011;69840;53.040;8.600;2023-05-23T06:02:15;19.98;;;6.32;;
80510;SDS011;69840;53.040;8.600;2023-05-23T06:06:29;15.95;;;6.60;;
80510;SDS011;69840;53.040;8.600;2023-05-23T06:10:41;12.70;;;5.40;;
80510;SDS011;69840;53.040;8.600;2023-05-23T06:14:54;13.65;;;5.28;;
80510;SDS011;69840;53.040;8.600;2023-05-23T06:19:07;16.67;;;5.88;;
80510;SDS011;69840;53.040;8.600;2023-05-23T06:23:21;16.08;;;4.68;;
80510;SDS011;69840;53.040;8.600;2023-05-23T06:27:34;18.88;;;6.95;;
80510;SDS011;69840;53.040;8.600;2023-05-23T06:31:46;20.33;;;4.35;;
80510;SDS011;69840;53.040;8.600;2023-05-23T06:35:59;12.02;;;3.28;;
80510;SDS011;69840;53.040;8.600;2023-05-23T06:40:11;6.15;;;2.83;;
80510;SDS011;69840;53.040;8.600;2023-05-23T06:44:24;16.48;;;4.35;;
80510;SDS011;69840;53.040;8.600;2023-05-23T06:48:38;19.98;;;4.30;;
80510;SDS011;69840;53.040;8.600;2023-05-23T06:52:50;15.88;;;3.33;;
80510;SDS011;69840;53.040;8.600;2023-05-23T06:57:04;9.85;;;2.38;;
80510;SDS011;69840;53.040;8.600;2023-05-23T07:01:17;15.73;;;3.78;;
80510;SDS011;69840;53.040;8.600;2023-05-23T07:05:32;14.75;;;2.92;;
80510;SDS011;69840;53.040;8.600;2023-05-23T07:09:45;12.13;;;3.25;;
80510;SDS011;69840;53.040;8.600;2023-05-23T07:14:02;10.82;;;2.92;;
80510;SDS011;69840;53.040;8.600;2023-05-23T07:18:24;10.45;;;2.90;;
80510;SDS011;69840;53.040;8.600;2023-05-23T07:22:37;10.18;;;3.58;;
80510;SDS011;69840;53.040;8.600;2023-05-23T07:26:49;8.93;;;3.13;;
80510;SDS011;69840;53.040;8.600;2023-05-23T07:31:03;14.57;;;3.17;;
80510;SDS011;69840;53.040;8.600;2023-05-23T07:35:16;8.98;;;3.15;;
80510;SDS011;69840;53.040;8.600;2023-05-23T07:39:28;13.88;;;3.25;;
80510;SDS011;69840;53.040;8.600;2023-05-23T07:43:42;7.90;;;2.58;;
80510;SDS011;69840;53.040;8.600;2023-05-23T07:47:55;11.40;;;2.88;;
80510;SDS011;69840;53.040;8.600;2023-05-23T07:52:08;8.30;;;2.83;;
80510;SDS011;69840;53.040;8.600;2023-05-23T07:56:22;7.00;;;2.45;;
80510;SDS011;69840;53.040;8.600;2023-05-23T08:00:35;11.07;;;2.90;;
80510;SDS011;69840;53.040;8.600;2023-05-23T08:04:55;10.65;;;3.08;;
80510;SDS011;69840;53.040;8.600;2023-05-23T08:09:09;17.58;;;3.60;;
80510;SDS011;69840;53.040;8.600;2023-05-23T08:18:16;23.50;;;3.78;;
80510;SDS011;69840;53.040;8.600;2023-05-23T08:22:29;14.70;;;3.83;;
80510;SDS011;69840;53.040;8.600;2023-05-23T08:26:42;15.93;;;3.55;;
80510;SDS011;69840;53.040;8.600;2023-05-23T08:30:56;16.35;;;3.15;;
80510;SDS011;69840;53.040;8.600;2023-05-23T08:35:09;8.77;;;2.85;;
80510;SDS011;69840;53.040;8.600;2023-05-23T08:39:24;9.82;;;2.40;;
80510;SDS011;69840;53.040;8.600;2023-05-23T08:43:56;11.60;;;2.20;;
80510;SDS011;69840;53.040;8.600;2023-05-23T08:48:13;5.15;;;2.30;;
80510;SDS011;69840;53.040;8.600;2023-05-23T08:52:32;12.40;;;3.13;;
80510;SDS011;69840;53.040;8.600;2023-05-23T08:56:48;11.40;;;4.07;;
80510;SDS011;69840;53.040;8.600;2023-05-23T09:01:02;9.85;;;2.90;;
80510;SDS011;69840;53.040;8.600;2023-05-23T09:05:16;19.75;;;4.22;;
80510;SDS011;69840;53.040;8.600;2023-05-23T09:09:28;22.92;;;3.95;;
80510;SDS011;69840;53.040;8.600;2023-05-23T09:13:42;13.40;;;2.83;;
80510;SDS011;69840;53.040;8.600;2023-05-23T09:17:59;19.92;;;3.17;;
80510;SDS011;69840;53.040;8.600;2023-05-23T09:22:12;12.10;;;2.65;;
80510;SDS011;69840;53.040;8.600;2023-05-23T09:26:41;10.80;;;2.55;;
80510;SDS011;69840;53.040;8.600;2023-05-23T09:30:59;16.73;;;3.13;;
80510;SDS011;69840;53.040;8.600;2023-05-23T09:35:14;9.43;;;2.30;;
80510;SDS011;69840;53.040;8.600;2023-05-23T09:39:29;14.27;;;2.72;;
80510;SDS011;69840;53.040;8.600;2023-05-23T09:43:51;8.02;;;2.63;;
80510;SDS011;69840;53.040;8.600;2023-05-23T09:48:06;6.85;;;2.33;;
80510;SDS011;69840;53.040;8.600;2023-05-23T09:52:23;5.13;;;2.78;;
80510;SDS011;69840;53.040;8.600;2023-05-23T09:56:36;11.38;;;2.80;;
80510;SDS011;69840;53.040;8.600;2023-05-23T10:00:51;7.20;;;2.35;;
80510;SDS011;69840;53.040;8.600;2023-05-23T10:05:06;12.68;;;3.70;;
80510;SDS011;69840;53.040;8.600;2023-05-23T10:09:23;12.88;;;2.40;;
80510;SDS011;69840;53.040;8.600;2023-05-23T10:13:39;11.32;;;2.15;;
80510;SDS011;69840;53.040;8.600;2023-05-23T10:18:01;5.50;;;1.77;;
80510;SDS011;69840;53.040;8.600;2023-05-23T10:22:18;9.27;;;2.28;;
80510;SDS011;69840;53.040;8.600;2023-05-23T10:26:32;10.98;;;2.38;;
80510;SDS011;69840;53.040;8.600;2023-05-23T10:30:45;12.43;;;2.72;;
80510;SDS011;69840;53.040;8.600;2023-05-23T10:39:40;9.90;;;2.08;;
80510;SDS011;69840;53.040;8.600;2023-05-23T10:44:11;9.82;;;2.42;;
80510;SDS011;69840;53.040;8.600;2023-05-23T10:48:32;7.35;;;1.67;;
80510;SDS011;69840;53.040;8.600;2023-05-23T10:52:46;8.90;;;2.28;;
80510;SDS011;69840;53.040;8.600;2023-05-23T10:57:04;10.25;;;2.60;;
80510;SDS011;69840;53.040;8.600;2023-05-23T11:01:17;7.55;;;2.00;;
80510;SDS011;69840;53.040;8.600;2023-05-23T11:05:30;6.68;;;2.20;;
80510;SDS011;69840;53.040;8.600;2023-05-23T11:10:07;9.95;;;2.25;;
80510;SDS011;69840;53.040;8.600;2023-05-23T11:14:30;6.47;;;2.25;;
80510;SDS011;69840;53.040;8.600;2023-05-23T11:23:40;11.93;;;2.95;;
80510;SDS011;69840;53.040;8.600;2023-05-23T11:27:53;10.05;;;2.20;;
80510;SDS011;69840;53.040;8.600;2023-05-23T11:32:12;9.85;;;2.35;;
80510;SDS011;69840;53.040;8.600;2023-05-23T11:36:27;10.82;;;2.50;;
80510;SDS011;69840;53.040;8.600;2023-05-23T11:40:40;15.60;;;2.92;;
80510;SDS011;69840;53.040;8.600;2023-05-23T11:44:55;8.65;;;2.58;;
80510;SDS011;69840;53.040;8.600;2023-05-23T11:49:10;13.18;;;2.78;;
80510;SDS011;69840;53.040;8.600;2023-05-23T11:53:25;8.32;;;1.73;;
80510;SDS011;69840;53.040;8.600;2023-05-23T11:57:38;6.05;;;1.83;;
80510;SDS011;69840;53.040;8.600;2023-05-23T12:01:51;7.72;;;2.50;;
80510;SDS011;69840;53.040;8.600;2023-05-23T12:06:04;9.95;;;1.95;;
80510;SDS011;69840;53.040;8.600;2023-05-23T12:10:17;10.75;;;1.83;;
80510;SDS011;69840;53.040;8.600;2023-05-23T12:14:29;7.35;;;2.25;;
80510;SDS011;69840;53.040;8.600;2023-05-23T12:18:42;12.02;;;2.63;;
80510;SDS011;69840;53.040;8.600;2023-05-23T12:22:55;9.02;;;2.17;;
80510;SDS011;69840;53.040;8.600;2023-05-23T12:27:08;7.63;;;2.30;;
80510;SDS011;69840;53.040;8.600;2023-05-23T12:31:20;7.15;;;2.78;;
80510;SDS011;69840;53.040;8.600;2023-05-23T12:35:33;9.18;;;2.10;;
80510;SDS011;69840;53.040;8.600;2023-05-23T12:39:46;6.65;;;2.83;;
80510;SDS011;69840;53.040;8.600;2023-05-23T12:43:59;8.63;;;1.65;;
80510;SDS011;69840;53.040;8.600;2023-05-23T12:48:11;9.90;;;2.20;;
80510;SDS011;69840;53.040;8.600;2023-05-23T12:52:24;7.45;;;2.17;;
80510;SDS011;69840;53.040;8.600;2023-05-23T12:56:36;9.27;;;1.98;;
80510;SDS011;69840;53.040;8.600;2023-05-23T13:00:49;8.25;;;1.65;;
80510;SDS011;69840;53.040;8.600;2023-05-23T13:05:02;18.33;;;2.30;;
80510;SDS011;69840;53.040;8.600;2023-05-23T13:09:14;11.45;;;3.17;;
80510;SDS011;69840;53.040;8.600;2023-05-23T13:13:27;8.73;;;2.45;;
80510;SDS011;69840;53.040;8.600;2023-05-23T13:17:40;6.55;;;1.45;;
80510;SDS011;69840;53.040;8.600;2023-05-23T13:21:53;9.68;;;2.42;;
80510;SDS011;69840;53.040;8.600;2023-05-23T13:26:05;8.60;;;2.13;;
80510;SDS011;69840;53.040;8.600;2023-05-23T13:30:19;11.98;;;2.40;;
80510;SDS011;69840;53.040;8.600;2023-05-23T13:34:32;9.13;;;2.10;;
80510;SDS011;69840;53.040;8.600;2023-05-23T13:38:45;6.68;;;1.73;;
80510;SDS011;69840;53.040;8.600;2023-05-23T13:42:57;6.45;;;1.80;;
80510;SDS011;69840;53.040;8.600;2023-05-23T13:47:13;10.07;;;2.60;;
80510;SDS011;69840;53.040;8.600;2023-05-23T13:51:26;11.98;;;2.13;;
80510;SDS011;69840;53.040;8.600;2023-05-23T13:55:38;9.40;;;2.50;;
80510;SDS011;69840;53.040;8.600;2023-05-23T13:59:51;7.25;;;2.25;;
80510;SDS011;69840;53.040;8.600;2023-05-23T14:04:03;13.65;;;2.22;;
80510;SDS011;69840;53.040;8.600;2023-05-23T14:08:17;13.52;;;2.78;;
80510;SDS011;69840;53.040;8.600;2023-05-23T14:12:30;5.20;;;1.85;;
80510;SDS011;69840;53.040;8.600;2023-05-23T14:16:42;10.38;;;2.28;;
80510;SDS011;69840;53.040;8.600;2023-05-23T14:20:55;9.88;;;2.38;;
80510;SDS011;69840;53.040;8.600;2023-05-23T14:25:08;8.57;;;2.28;;
80510;SDS011;69840;53.040;8.600;2023-05-23T14:29:20;5.55;;;2.22;;
80510;SDS011;69840;53.040;8.600;2023-05-23T14:33:33;8.88;;;1.88;;
80510;SDS011;69840;53.040;8.600;2023-05-23T14:37:46;6.50;;;1.75;;
80510;SDS011;69840;53.040;8.600;2023-05-23T14:41:58;11.63;;;1.85;;
80510;SDS011;69840;53.040;8.600;2023-05-23T14:46:11;10.35;;;1.95;;
80510;SDS011;69840;53.040;8.600;2023-05-23T14:50:24;7.10;;;1.80;;
80510;SDS011;69840;53.040;8.600;2023-05-23T14:54:37;5.82;;;2.83;;
80510;SDS011;69840;53.040;8.600;2023-05-23T14:58:50;6.35;;;2.35;;
80510;SDS011;69840;53.040;8.600;2023-05-23T15:03:03;6.22;;;1.17;;
80510;SDS011;69840;53.040;8.600;2023-05-23T15:07:16;7.00;;;1.38;;
80510;SDS011;69840;53.040;8.600;2023-05-23T15:11:28;5.78;;;1.50;;
80510;SDS011;69840;53.040;8.600;2023-05-23T15:15:41;7.63;;;1.45;;
80510;SDS011;69840;53.040;8.600;2023-05-23T15:19:54;7.57;;;1.85;;
80510;SDS011;69840;53.040;8.600;2023-05-23T15:24:07;9.48;;;1.85;;
80510;SDS011;69840;53.040;8.600;2023-05-23T15:28:20;9.63;;;1.90;;
80510;SDS011;69840;53.040;8.600;2023-05-23T15:32:32;6.40;;;1.60;;
80510;SDS011;69840;53.040;8.600;2023-05-23T15:36:45;6.88;;;1.65;;
80510;SDS011;69840;53.040;8.600;2023-05-23T15:40:58;7.65;;;1.13;;
80510;SDS011;69840;53.040;8.600;2023-05-23T15:45:11;8.68;;;1.75;;
80510;SDS011;69840;53.040;8.600;2023-05-23T15:49:23;10.88;;;1.50;;
80510;SDS011;69840;53.040;8.600;2023-05-23T15:53:37;11.13;;;1.30;;
80510;SDS011;69840;53.040;8.600;2023-05-23T15:57:59;5.25;;;1.52;;
80510;SDS011;69840;53.040;8.600;2023-05-23T16:02:11;15.02;;;1.80;;
80510;SDS011;69840;53.040;8.600;2023-05-23T16:06:24;8.88;;;1.40;;
80510;SDS011;69840;53.040;8.600;2023-05-23T16:10:36;11.25;;;2.05;;
80510;SDS011;69840;53.040;8.600;2023-05-23T16:14:49;11.77;;;1.80;;
80510;SDS011;69840;53.040;8.600;2023-05-23T16:19:01;4.85;;;1.25;;
80510;SDS011;69840;53.040;8.600;2023-05-23T16:23:14;4.22;;;1.60;;
80510;SDS011;69840;53.040;8.600;2023-05-23T16:27:26;7.55;;;2.38;;
80510;SDS011;69840;53.040;8.600;2023-05-23T16:31:39;8.00;;;1.45;;
80510;SDS011;69840;53.040;8.600;2023-05-23T16:35:51;8.70;;;1.35;;
80510;SDS011;69840;53.040;8.600;2023-05-23T16:40:04;6.03;;;1.30;;
80510;SDS011;69840;53.040;8.600;2023-05-23T16:44:17;5.82;;;1.33;;
80510;SDS011;69840;53.040;8.600;2023-05-23T16:48:30;10.70;;;1.52;;
80510;SDS011;69840;53.040;8.600;2023-05-23T16:52:42;8.43;;;1.80;;
80510;SDS011;69840;53.040;8.600;2023-05-23T16:56:55;5.07;;;1.02;;
80510;SDS011;69840;53.040;8.600;2023-05-23T17:01:07;6.18;;;1.50;;
80510;SDS011;69840;53.040;8.600;2023-05-23T17:05:20;10.48;;;1.50;;
80510;SDS011;69840;53.040;8.600;2023-05-23T17:09:32;13.57;;;1.85;;
80510;SDS011;69840;53.040;8.600;2023-05-23T17:13:45;8.85;;;1.55;;
80510;SDS011;69840;53.040;8.600;2023-05-23T17:17:57;9.82;;;1.40;;
80510;SDS011;69840;53.040;8.600;2023-05-23T17:22:10;5.45;;;1.95;;
80510;SDS011;69840;53.040;8.600;2023-05-23T17:26:22;8.68;;;1.40;;
80510;SDS011;69840;53.040;8.600;2023-05-23T17:30:35;10.48;;;1.30;;
80510;SDS011;69840;53.040;8.600;2023-05-23T17:34:47;10.05;;;1.52;;
80510;SDS011;69840;53.040;8.600;2023-05-23T17:39:00;7.90;;;1.00;;
80510;SDS011;69840;53.040;8.600;2023-05-23T17:43:12;6.82;;;1.15;;
80510;SDS011;69840;53.040;8.600;2023-05-23T17:47:25;11.52;;;1.65;;
80510;SDS011;69840;53.040;8.600;2023-05-23T17:51:37;7.38;;;1.23;;
80510;SDS011;69840;53.040;8.600;2023-05-23T17:55:50;4.88;;;1.10;;
80510;SDS011;69840;53.040;8.600;2023-05-23T18:00:02;10.57;;;1.58;;
80510;SDS011;69840;53.040;8.600;2023-05-23T18:04:23;6.93;;;1.17;;
80510;SDS011;69840;53.040;8.600;2023-05-23T18:08:35;6.97;;;1.73;;
80510;SDS011;69840;53.040;8.600;2023-05-23T18:12:48;2.78;;;1.17;;
80510;SDS011;69840;53.040;8.600;2023-05-23T18:17:00;11.82;;;1.67;;
80510;SDS011;69840;53.040;8.600;2023-05-23T18:21:13;6.47;;;1.73;;
80510;SDS011;69840;53.040;8.600;2023-05-23T18:25:26;8.40;;;1.30;;
80510;SDS011;69840;53.040;8.600;2023-05-23T18:29:39;8.13;;;1.58;;
80510;SDS011;69840;53.040;8.600;2023-05-23T18:33:51;10.52;;;2.28;;
80510;SDS011;69840;53.040;8.600;2023-05-23T18:38:04;11.75;;;1.60;;
80510;SDS011;69840;53.040;8.600;2023-05-23T18:42:16;8.18;;;1.50;;
80510;SDS011;69840;53.040;8.600;2023-05-23T18:46:29;3.97;;;1.77;;
80510;SDS011;69840;53.040;8.600;2023-05-23T18:50:42;14.00;;;2.05;;
80510;SDS011;69840;53.040;8.600;2023-05-23T18:54:54;7.10;;;1.50;;
80510;SDS011;69840;53.040;8.600;2023-05-23T18:59:07;6.97;;;1.23;;
80510;SDS011;69840;53.040;8.600;2023-05-23T19:03:19;13.68;;;1.95;;
80510;SDS011;69840;53.040;8.600;2023-05-23T19:07:32;13.30;;;2.55;;
80510;SDS011;69840;53.040;8.600;2023-05-23T19:11:44;7.10;;;1.77;;
80510;SDS011;69840;53.040;8.600;2023-05-23T19:15:57;9.55;;;1.70;;
80510;SDS011;69840;53.040;8.600;2023-05-23T19:20:10;5.72;;;1.58;;
80510;SDS011;69840;53.040;8.600;2023-05-23T19:24:23;7.20;;;1.42;;
80510;SDS011;69840;53.040;8.600;2023-05-23T19:28:35;11.40;;;1.95;;
80510;SDS011;69840;53.040;8.600;2023-05-23T19:32:48;9.25;;;2.15;;
80510;SDS011;69840;53.040;8.600;2023-05-23T19:37:01;7.57;;;1.58;;
80510;SDS011;69840;53.040;8.600;2023-05-23T19:41:14;6.03;;;1.65;;
80510;SDS011;69840;53.040;8.600;2023-05-23T19:45:26;17.48;;;1.80;;
80510;SDS011;69840;53.040;8.600;2023-05-23T19:49:39;5.30;;;1.50;;
80510;SDS011;69840;53.040;8.600;2023-05-23T19:53:52;9.68;;;1.83;;
80510;SDS011;69840;53.040;8.600;2023-05-23T20:03:13;8.95;;;1.75;;
80510;SDS011;69840;53.040;8.600;2023-05-23T20:07:25;6.25;;;1.15;;
80510;SDS011;69840;53.040;8.600;2023-05-23T20:11:38;12.80;;;1.63;;
80510;SDS011;69840;53.040;8.600;2023-05-23T20:15:50;10.93;;;2.10;;
80510;SDS011;69840;53.040;8.600;2023-05-23T20:20:03;18.00;;;2.30;;
80510;SDS011;69840;53.040;8.600;2023-05-23T20:24:16;9.10;;;1.95;;
80510;SDS011;69840;53.040;8.600;2023-05-23T20:28:28;9.80;;;2.20;;
80510;SDS011;69840;53.040;8.600;2023-05-23T20:32:40;10.68;;;2.53;;
80510;SDS011;69840;53.040;8.600;2023-05-23T20:36:53;4.55;;;2.00;;
80510;SDS011;69840;53.040;8.600;2023-05-23T20:41:05;11.20;;;2.45;;
80510;SDS011;69840;53.040;8.600;2023-05-23T20:45:18;13.32;;;2.83;;
80510;SDS011;69840;53.040;8.600;2023-05-23T20:49:30;8.40;;;1.67;;
80510;SDS011;69840;53.040;8.600;2023-05-23T20:53:43;6.63;;;1.42;;
80510;SDS011;69840;53.040;8.600;2023-05-23T20:57:56;7.45;;;2.15;;
80510;SDS011;69840;53.040;8.600;2023-05-23T21:02:08;6.50;;;1.42;;
80510;SDS011;69840;53.040;8.600;2023-05-23T21:06:21;7.25;;;1.60;;
80510;SDS011;69840;53.040;8.600;2023-05-23T21:10:33;6.90;;;1.63;;
80510;SDS011;69840;53.040;8.600;2023-05-23T21:14:45;11.48;;;1.73;;
80510;SDS011;69840;53.040;8.600;2023-05-23T21:18:58;9.52;;;1.67;;
80510;SDS011;69840;53.040;8.600;2023-05-23T21:23:10;13.93;;;2.15;;
80510;SDS011;69840;53.040;8.600;2023-05-23T21:27:23;11.10;;;2.45;;
80510;SDS011;69840;53.040;8.600;2023-05-23T21:31:35;13.63;;;2.38;;
80510;SDS011;69840;53.040;8.600;2023-05-23T21:35:51;6.13;;;1.85;;
80510;SDS011;69840;53.040;8.600;2023-05-23T21:40:04;6.47;;;2.05;;
80510;SDS011;69840;53.040;8.600;2023-05-23T21:44:17;9.32;;;1.75;;
80510;SDS011;69840;53.040;8.600;2023-05-23T21:48:29;6.97;;;3.00;;
80510;SDS011;69840;53.040;8.600;2023-05-23T21:52:42;2.72;;;1.73;;
80510;SDS011;69840;53.040;8.600;2023-05-23T21:56:54;10.25;;;2.67;;
80510;SDS011;69840;53.040;8.600;2023-05-23T22:01:07;13.20;;;2.30;;
80510;SDS011;69840;53.040;8.600;2023-05-23T22:05:19;6.35;;;2.30;;
80510;SDS011;69840;53.040;8.600;2023-05-23T22:09:32;7.57;;;2.97;;
80510;SDS011;69840;53.040;8.600;2023-05-23T22:13:44;7.47;;;2.20;;
80510;SDS011;69840;53.040;8.600;2023-05-23T22:17:57;8.27;;;2.97;;
80510;SDS011;69840;53.040;8.600;2023-05-23T22:22:10;10.60;;;2.67;;
80510;SDS011;69840;53.040;8.600;2023-05-23T22:26:22;9.15;;;2.78;;
80510;SDS011;69840;53.040;8.600;2023-05-23T22:30:35;9.50;;;2.08;;
80510;SDS011;69840;53.040;8.600;2023-05-23T22:34:47;10.60;;;2.45;;
80510;SDS011;69840;53.040;8.600;2023-05-23T22:39:00;8.63;;;2.45;;
80510;SDS011;69840;53.040;8.600;2023-05-23T22:43:12;11.82;;;2.63;;
80510;SDS011;69840;53.040;8.600;2023-05-23T22:47:27;11.25;;;2.97;;
80510;SDS011;69840;53.040;8.600;2023-05-23T22:51:40;10.93;;;3.13;;
80510;SDS011;69840;53.040;8.600;2023-05-23T22:55:53;11.48;;;2.83;;
80510;SDS011;69840;53.040;8.600;2023-05-23T23:00:05;17.15;;;2.20;;
80510;SDS011;69840;53.040;8.600;2023-05-23T23:04:18;13.88;;;2.08;;
80510;SDS011;69840;53.040;8.600;2023-05-23T23:08:31;12.25;;;3.22;;
80510;SDS011;69840;53.040;8.600;2023-05-23T23:12:43;13.55;;;2.58;;
80510;SDS011;69840;53.040;8.600;2023-05-23T23:16:56;14.05;;;3.35;;
80510;SDS011;69840;53.040;8.600;2023-05-23T23:21:08;16.20;;;3.47;;
80510;SDS011;69840;53.040;8.600;2023-05-23T23:25:21;7.63;;;2.20;;
80510;SDS011;69840;53.040;8.600;2023-05-23T23:29:33;15.48;;;3.13;;
80510;SDS011;69840;53.040;8.600;2023-05-23T23:33:46;16.42;;;2.80;;
80510;SDS011;69840;53.040;8.600;2023-05-23T23:37:58;12.07;;;2.58;;
80510;SDS011;69840;53.040;8.600;2023-05-23T23:42:11;16.05;;;3.63;;
80510;SDS011;69840;53.040;8.600;2023-05-23T23:46:23;12.73;;;2.83;;
80510;SDS011;69840;53.040;8.600;2023-05-23T23:50:36;12.25;;;3.35;;
80510;SDS011;69840;53.040;8.600;2023-05-23T23:54:48;12.70;;;3.00;;
80510;SDS011;69840;53.040;8.600;2023-05-23T23:59:01;9.90;;;2.67;;
